Flight Track Log - Related Links

Times and Time Zones

All times are in EDT time to prevent confusion due to time zone crossing. See the CJT574 flight status page for this flight to view local times or setup timezone preferences in your user account.

Time Position Orientation Groundspeed Altitude Reporting Facility
EDT Latitude Longitude Course Direction KTS MPH feet Rate Location/Type
Wed 12:00:40 AM 53.2833 -113.6000 318° Northwest 100 115 2,800  Level Edmonton Center
Wed 12:01:40 AM 53.3167 -113.6500 318° Northwest 170 196 4,600 1,850 Climbing Edmonton Center
Wed 12:02:40 AM 53.3333 -113.5667 71° East 250 288 6,500 1,850 Climbing Edmonton Center
Wed 12:03:40 AM 53.2833 -113.4333 122° Southeast 270 311 8,300 1,650 Climbing Edmonton Center
Wed 12:04:40 AM 53.2500 -113.3167 115° Southeast 310 357 9,800 1,600 Climbing Edmonton Center
Wed 12:05:40 AM 53.1667 -113.2500 154° Southeast 320 368 11,500 1,750 Climbing Edmonton Center
Wed 12:06:40 AM 53.0833 -113.1667 149° Southeast 350 403 13,300 1,650 Climbing Edmonton Center
Wed 12:07:40 AM 53.0000 -113.1000 154° Southeast 370 426 14,800 1,750 Climbing Edmonton Center
Wed 12:08:40 AM 52.9000 -113.0000 149° Southeast 380 437 16,800 1,800 Climbing Edmonton Center
Wed 12:09:40 AM 52.8500 -112.8500 119° Southeast 390 449 18,400 1,200 Climbing Edmonton Center
Wed 12:10:40 AM 52.8333 -112.6167 97° East 430 495 19,200 1,250 Climbing Edmonton Center
Wed 12:11:40 AM 52.8167 -112.4167 98° East 450 518 20,900 1,550 Climbing Edmonton Center
Wed 12:12:40 AM 52.7833 -112.2167 105° East 460 529 22,300 1,450 Climbing Edmonton Center
Wed 12:13:40 AM 52.7667 -112.0167 98° East 470 541 23,800 1,650 Climbing Edmonton Center
Wed 12:14:40 AM 52.7333 -111.7833 103° East 470 541 25,600 1,200 Climbing Edmonton Center
Wed 12:15:40 AM 52.7167 -111.5833 98° East 470 541 26,200 550 Climbing Edmonton Center
Wed 12:16:40 AM 52.7000 -111.3333 96° East 490 564 26,700 700 Climbing Edmonton Center
Wed 12:17:40 AM 52.6667 -111.1000 103° East 510 587 27,600 900 Climbing Edmonton Center
Wed 12:18:40 AM 52.6333 -110.8667 103° East 520 598 28,500 1,050 Climbing Edmonton Center
Wed 12:19:40 AM 52.6000 -110.6500 104° East 520 598 29,700 1,200 Climbing Edmonton Center
Wed 12:20:40 AM 52.5833 -110.4167 97° East 510 587 30,900 850 Climbing Edmonton Center
Wed 12:21:40 AM 52.5333 -110.1667 108° East 510 587 31,400 600 Climbing Edmonton Center
Wed 12:22:40 AM 52.5167 -109.9333 97° East 520 598 32,100 800 Climbing Edmonton Center
Wed 12:23:40 AM 52.4667 -109.7167 111° Southeast 520 598 33,000 450 Climbing Edmonton Center
Wed 12:24:40 AM 52.4500 -109.4833 97° East 520 598 33,000  Level Edmonton Center
Wed 12:25:40 AM 52.4167 -109.2667 104° East 520 598 33,000  Level Edmonton Center
Wed 12:26:40 AM 52.3833 -109.0000 101° East 510 587 33,000  Level Edmonton Center
Wed 12:27:40 AM 52.3500 -108.7833 104° East 510 587 33,000  Level Edmonton Center
Wed 12:28:40 AM 52.3167 -108.5500 103° East 510 587 33,000  Level Edmonton Center
Wed 12:29:40 AM 52.2833 -108.3333 104° East 510 587 33,000  Level Edmonton Center
Wed 12:30:40 AM 52.2500 -108.1167 104° East 500 575 33,000  Level Edmonton Center
Wed 12:31:40 AM 52.2167 -107.8833 103° East 500 575 33,000  Level Edmonton Center
Wed 12:32:40 AM 52.1833 -107.6667 104° East 500 575 33,000  Level Edmonton Center
Wed 12:33:40 AM 52.1333 -107.4333 109° East 500 575 33,000  Level Edmonton Center
Wed 12:34:40 AM 52.1167 -107.2167 97° East 500 575 33,000  Level Edmonton Center
Wed 12:35:40 AM 52.0833 -107.0000 104° East 490 564 33,000  Level Edmonton Center
Wed 12:36:40 AM 52.0333 -106.8000 112° Southeast 500 575 33,000  Level Edmonton Center
Wed 12:37:40 AM 52.0000 -106.5500 102° East 500 575 33,000  Level Edmonton Center
Wed 12:38:40 AM 51.9667 -106.3667 106° East 490 564 33,000  Level Edmonton Center
Wed 12:39:40 AM 51.9167 -106.1167 108° East 490 564 33,000  Level Edmonton Center
Wed 12:40:40 AM 51.8833 -105.9167 105° East 490 564 33,000  Level Edmonton Center
Wed 12:41:40 AM 51.8667 -105.7000 97° East 490 564 33,000  Level Edmonton Center
Wed 12:42:40 AM 51.8333 -105.4833 104° East 490 564 33,000  Level Edmonton Center
Wed 12:43:40 AM 51.7833 -105.2667 110° East 490 564 33,000  Level Edmonton Center
Wed 12:44:40 AM 51.7500 -105.0500 104° East 490 564 33,000  Level Edmonton Center
Wed 12:45:40 AM 51.7167 -104.8333 104° East 490 564 33,000  Level Edmonton Center
Wed 12:46:40 AM 51.6667 -104.6333 112° Southeast 490 564 33,000 -50 Level Edmonton Center
Wed 12:47:40 AM 51.6167 -104.4167 110° East 490 564 32,900  Descending Edmonton Center
Wed 12:48:40 AM 51.5833 -104.2000 104° East 490 564 33,000 50 Climbing Edmonton Center
Wed 12:49:40 AM 51.5500 -103.9833 104° East 490 564 33,000  Level Edmonton Center
Wed 12:50:40 AM 51.5000 -103.7667 110° East 490 564 33,000  Level Edmonton Center
Wed 12:51:40 AM 51.4667 -103.5833 106° East 490 564 33,000  Level Edmonton Center
Wed 12:52:40 AM 51.4333 -103.3333 102° East 490 564 33,000  Level Edmonton Center
Wed 12:53:40 AM 51.3833 -103.1500 114° Southeast 480 552 33,000  Level Edmonton Center
Wed 12:54:40 AM 51.3333 -102.9333 110° East 480 552 33,000  Level Edmonton Center
Wed 12:55:40 AM 51.3000 -102.7167 104° East 480 552 33,000  Level Edmonton Center
Wed 12:56:40 AM 51.2667 -102.5167 105° East 480 552 33,000  Level Edmonton Center
Wed 12:57:40 AM 51.2167 -102.3167 112° Southeast 480 552 33,000  Level Edmonton Center
Wed 12:58:40 AM 51.1667 -102.1333 113° Southeast 480 552 33,000  Level Edmonton Center
Wed 12:59:40 AM 51.1333 -101.9333 105° East 480 552 33,000  Level Edmonton Center
Wed 01:00:40 AM 51.0833 -101.7167 110° East 480 552 33,000  Level Edmonton Center
Wed 01:01:40 AM 51.0500 -101.5000 104° East 480 552 33,000  Level Edmonton Center
Wed 01:02:40 AM 51.0000 -101.3167 113° Southeast 480 552 33,000  Level Edmonton Center
Wed 01:03:40 AM 50.9500 -101.1167 112° Southeast 480 552 33,000  Level Edmonton Center
Wed 01:04:40 AM 50.9167 -100.9333 106° East 480 552 33,000  Level Edmonton Center
Wed 01:05:40 AM 50.8667 -100.7333 112° Southeast 470 541 33,000 -47 Level Edmonton Center
Wed 01:06:49 AM 50.8333 -100.5500 106° East 440 506 32,900  Descending Winnipeg Center
Wed 01:07:49 AM 50.7833 -100.3833 115° Southeast 440 506 33,000 50 Climbing Winnipeg Center
Wed 01:08:49 AM 50.7333 -100.2000 113° Southeast 440 506 33,000  Level Winnipeg Center
Wed 01:09:49 AM 50.7000 -100.0000 105° East 440 506 33,000  Level Winnipeg Center
Wed 01:10:49 AM 50.6500 -99.8500 118° Southeast 440 506 33,000  Level Winnipeg Center
Wed 01:11:49 AM 50.6000 -99.6500 111° Southeast 440 506 33,000  Level Winnipeg Center
Wed 01:12:49 AM 50.5500 -99.4667 113° Southeast 450 518 33,000 -150 Level Winnipeg Center
Wed 01:13:49 AM 50.5167 -99.2833 106° East 450 518 32,700 -1,300 Descending Winnipeg Center
Wed 01:14:49 AM 50.4667 -99.1167 115° Southeast 440 506 30,400 -2,900 Descending Winnipeg Center
Wed 01:15:49 AM 50.4167 -98.9333 113° Southeast 430 495 26,900 -3,350 Descending Winnipeg Center
Wed 01:16:49 AM 50.3667 -98.7833 118° Southeast 420 483 23,700 -3,250 Descending Winnipeg Center
Wed 01:17:49 AM 50.3333 -98.5833 105° East 400 460 20,400 -3,000 Descending Winnipeg Center
Wed 01:18:49 AM 50.2833 -98.4667 124° Southeast 380 437 17,700 -2,600 Descending Winnipeg Center
Wed 01:19:49 AM 50.2500 -98.3000 107° East 360 414 15,200 -2,600 Descending Winnipeg Center
Wed 01:20:49 AM 50.2000 -98.1667 120° Southeast 360 414 12,500 -2,300 Descending Winnipeg Center
Wed 01:21:49 AM 50.1833 -98.0333 101° East 350 403 10,600 -1,600 Descending Winnipeg Center
Wed 01:22:49 AM 50.1500 -97.9000 111° Southeast 300 345 9,300 -1,400 Descending Winnipeg Center
Wed 01:23:49 AM 50.1333 -97.7667 101° East 290 334 7,800 -1,600 Descending Winnipeg Center
Wed 01:24:49 AM 50.1333 -97.6500 90° East 280 322 6,100 -1,050 Descending Winnipeg Center
Wed 01:25:49 AM 50.1333 -97.5333 90° East 240 276 5,700 -650 Descending Winnipeg Center
Wed 01:26:49 AM 50.1167 -97.4667 111° Southeast 200 230 4,800 -1,050 Descending Winnipeg Center
Wed 01:27:49 AM 50.0667 -97.4333 157° South 190 219 3,600 -800 Descending Winnipeg Center
Wed 01:28:49 AM 50.0167 -97.4167 168° South 180 207 3,200 -400 Descending Winnipeg Center
Wed 01:29:49 AM 49.9833 -97.3500 128° Southeast 170 196 2,800 -650 Descending Winnipeg Center
Wed 01:30:49 AM 49.9500 -97.3000 136° Southeast 160 184 1,900 -800 Descending Winnipeg Center
Wed 01:31:49 AM 49.9167 -97.2833 162° South 150 173 1,200 -600 Descending Winnipeg Center
Wed 01:32:49 AM 49.8833 -97.2333 136° Southeast 150 173 700 -500 Descending Winnipeg Center

Login

Don't have an account? Register now (free) for customized features, flight alerts, and more!